createdAt,value
2019-04-29T00:03:02.376Z,9.53
2019-04-29T00:08:06.239Z,7.72
2019-04-29T00:13:10.518Z,9.18
2019-04-29T00:18:31.457Z,7.05
2019-04-29T00:23:35.365Z,10.80
2019-04-29T00:28:39.261Z,9.60
2019-04-29T00:33:43.136Z,8.05
2019-04-29T00:39:04.736Z,9.95
2019-04-29T00:44:10.308Z,8.10
2019-04-29T00:49:14.310Z,9.38
2019-04-29T00:54:19.750Z,9.85
2019-04-29T00:59:23.640Z,12.28
2019-04-29T01:04:27.615Z,10.40
2019-04-29T01:09:31.588Z,9.20
2019-04-29T01:14:35.456Z,13.58
2019-04-29T01:19:39.374Z,12.18
2019-04-29T01:24:44.226Z,13.62
2019-04-29T01:29:48.103Z,14.90
2019-04-29T01:34:53.548Z,13.58
2019-04-29T01:40:14.093Z,15.63
2019-04-29T01:45:17.975Z,16.02
2019-04-29T01:50:21.852Z,14.73
2019-04-29T01:55:25.724Z,16.17
2019-04-29T02:00:29.590Z,17.17
2019-04-29T02:05:33.464Z,18.48
2019-04-29T02:10:37.347Z,18.17
2019-04-29T02:15:41.285Z,17.12
2019-04-29T02:20:45.218Z,18.50
2019-04-29T02:25:50.630Z,18.67
2019-04-29T02:30:54.926Z,16.67
2019-04-29T02:35:58.807Z,17.40
2019-04-29T02:41:10.109Z,16.32
2019-04-29T02:46:14.043Z,17.65
2019-04-29T02:51:19.555Z,15.65
2019-04-29T02:56:23.458Z,14.83
2019-04-29T03:01:28.954Z,15.65
2019-04-29T03:06:32.875Z,17.40
2019-04-29T03:11:36.794Z,14.68
2019-04-29T03:16:40.845Z,16.17
2019-04-29T03:21:46.347Z,15.75
2019-04-29T03:26:50.261Z,16.15
2019-04-29T03:31:55.108Z,16.97
2019-04-29T03:36:59.015Z,13.90
2019-04-29T03:42:07.012Z,14.28
2019-04-29T03:47:08.501Z,15.00
2019-04-29T03:52:12.419Z,13.38
2019-04-29T03:57:17.739Z,15.83
2019-04-29T04:02:26.326Z,12.98
2019-04-29T04:07:37.494Z,17.30
2019-04-29T04:12:41.413Z,16.48
2019-04-29T04:17:46.915Z,14.15
2019-04-29T04:22:50.828Z,14.80
2019-04-29T04:27:54.759Z,14.47
2019-04-29T04:32:58.964Z,14.65
2019-04-29T04:38:02.971Z,13.43
2019-04-29T04:43:06.836Z,14.30
2019-04-29T04:48:10.750Z,12.85
2019-04-29T04:53:14.829Z,14.40
2019-04-29T04:58:18.755Z,13.48
2019-04-29T05:03:22.665Z,12.33
2019-04-29T05:08:26.609Z,12.10
2019-04-29T05:13:30.527Z,10.68
2019-04-29T05:18:34.408Z,11.08
2019-04-29T05:23:41.398Z,10.25
2019-04-29T05:28:43.797Z,10.88
2019-04-29T05:33:47.676Z,11.38
2019-04-29T05:38:53.123Z,9.45
2019-04-29T05:44:07.939Z,9.63
2019-04-29T05:49:13.377Z,9.98
2019-04-29T05:54:21.395Z,9.45
2019-04-29T05:59:25.266Z,22.48
2019-04-29T06:04:29.165Z,17.32
2019-04-29T06:09:33.065Z,9.30
2019-04-29T06:14:40.190Z,14.30
2019-04-29T06:19:44.116Z,11.00
2019-04-29T06:24:48.033Z,10.03
2019-04-29T06:29:51.953Z,9.80
2019-04-29T06:34:55.862Z,8.58
2019-04-29T06:39:59.776Z,9.80
2019-04-29T06:45:05.710Z,8.55
2019-04-29T06:50:09.623Z,10.32
2019-04-29T06:55:13.638Z,8.23
2019-04-29T07:00:22.045Z,10.32
2019-04-29T07:05:23.316Z,8.98
2019-04-29T07:10:27.361Z,9.03
2019-04-29T07:15:31.203Z,8.95
2019-04-29T07:20:37.042Z,10.03
2019-04-29T07:25:40.680Z,8.25
2019-04-29T07:31:00.680Z,10.48
2019-04-29T07:35:50.148Z,8.80
2019-04-29T07:40:54.091Z,12.33
2019-04-29T07:46:05.667Z,10.23
2019-04-29T07:51:09.575Z,11.43
2019-04-29T07:56:13.453Z,12.63
2019-04-29T08:01:19.913Z,13.25
2019-04-29T08:06:23.145Z,14.55
2019-04-29T08:11:27.064Z,13.95
2019-04-29T08:16:31.189Z,18.87
2019-04-29T08:21:35.140Z,26.65
2019-04-29T08:26:46.791Z,21.10
2019-04-29T08:31:44.657Z,24.57
2019-04-29T08:36:48.582Z,29.12
2019-04-29T08:41:52.577Z,31.07
2019-04-29T08:47:00.832Z,30.85
2019-04-29T08:52:04.847Z,33.48
2019-04-29T08:57:08.865Z,35.00
2019-04-29T09:02:12.940Z,33.73
2019-04-29T09:07:21.874Z,40.98
2019-04-29T09:12:24.219Z,42.05
2019-04-29T09:17:28.475Z,44.30
2019-04-29T09:22:34.150Z,43.60
2019-04-29T09:27:40.709Z,46.80
2019-04-29T09:32:45.261Z,51.75
2019-04-29T09:37:49.203Z,51.98
2019-04-29T09:42:58.153Z,50.88
2019-04-29T09:48:02.207Z,61.90
2019-04-29T09:53:06.145Z,56.42
2019-04-29T09:58:10.097Z,57.67
2019-04-29T10:03:27.775Z,59.42
2019-04-29T10:08:31.702Z,64.27
2019-04-29T10:13:35.633Z,59.65
2019-04-29T10:18:41.086Z,58.87
2019-04-29T10:23:45.056Z,59.65
2019-04-29T10:28:53.173Z,62.25
2019-04-29T10:33:57.183Z,61.90
2019-04-29T10:39:02.653Z,69.55
2019-04-29T10:44:21.956Z,66.72
2019-04-29T10:49:34.840Z,61.83
2019-04-29T10:54:38.700Z,66.95
2019-04-29T10:59:44.973Z,65.47
2019-04-29T11:04:54.510Z,69.77
2019-04-29T11:10:03.062Z,66.70
2019-04-29T11:15:09.857Z,70.70
2019-04-29T11:20:15.774Z,69.27
2019-04-29T11:25:24.161Z,69.00
2019-04-29T11:30:29.818Z,60.30
2019-04-29T11:35:38.116Z,67.95
2019-04-29T11:40:44.223Z,67.05
2019-04-29T11:45:47.680Z,63.90
2019-04-29T11:50:56.349Z,63.40
2019-04-29T11:56:00.757Z,63.77
2019-04-29T12:01:18.472Z,65.03
2019-04-29T12:06:23.195Z,72.92
2019-04-29T12:11:35.753Z,69.12
2019-04-29T12:16:36.051Z,69.62
2019-04-29T12:21:41.807Z,66.85
2019-04-29T12:26:45.927Z,66.62
2019-04-29T12:32:00.494Z,61.28
2019-04-29T12:37:06.505Z,66.60
2019-04-29T12:42:29.950Z,64.92
2019-04-29T12:47:35.451Z,64.80
2019-04-29T12:52:40.598Z,64.10
2019-04-29T12:57:44.589Z,69.05
2019-04-29T13:02:59.841Z,67.03
2019-04-29T13:08:15.378Z,66.30
2019-04-29T13:13:20.351Z,66.62
2019-04-29T13:18:26.686Z,63.30
2019-04-29T13:23:36.260Z,62.40
2019-04-29T13:33:22.275Z,63.87
2019-04-29T13:33:41.762Z,57.60
2019-04-29T13:38:45.642Z,60.48
2019-04-29T13:43:52.102Z,59.67
2019-04-29T13:49:12.611Z,57.10
2019-04-29T13:54:06.637Z,54.25
2019-04-29T13:59:12.646Z,63.92
2019-04-29T14:04:25.984Z,68.42
2019-04-29T14:09:29.688Z,58.73
2019-04-29T14:14:33.570Z,61.63
2019-04-29T14:19:42.348Z,57.83
2019-04-29T14:24:42.987Z,59.83
2019-04-29T14:29:46.871Z,57.90
2019-04-29T14:34:52.444Z,55.92
2019-04-29T14:39:56.549Z,64.00
2019-04-29T14:45:02.120Z,65.47
2019-04-29T14:50:10.597Z,62.67
2019-04-29T14:55:15.006Z,62.37
2019-04-29T15:00:23.748Z,58.92
2019-04-29T15:05:27.661Z,65.83
2019-04-29T15:10:32.972Z,60.25
2019-04-29T15:15:47.481Z,68.40
2019-04-29T15:21:01.874Z,60.48
2019-04-29T15:26:04.747Z,62.70
2019-04-29T15:31:12.654Z,67.45
2019-04-29T15:36:14.309Z,59.90
2019-04-29T15:41:18.372Z,67.50
2019-04-29T15:46:22.838Z,65.35
2019-04-29T15:51:29.004Z,59.73
2019-04-29T15:56:33.803Z,65.55
2019-04-29T16:01:41.617Z,63.85
2019-04-29T16:06:47.667Z,68.45
2019-04-29T16:12:14.433Z,65.22
2019-04-29T16:17:20.722Z,66.07
2019-04-29T16:22:23.866Z,68.15
2019-04-29T16:27:27.773Z,65.00
2019-04-29T16:32:33.262Z,65.35
2019-04-29T16:37:37.146Z,69.25
2019-04-29T16:42:43.755Z,76.05
2019-04-29T16:47:48.640Z,72.67
2019-04-29T16:52:52.770Z,77.65
2019-04-29T16:57:59.646Z,71.35
2019-04-29T17:03:03.975Z,76.17
2019-04-29T17:08:09.377Z,69.42
2019-04-29T17:13:15.066Z,74.22
2019-04-29T17:18:19.036Z,70.40
2019-04-29T17:23:24.433Z,76.92
2019-04-29T17:28:30.209Z,80.67
2019-04-29T17:33:48.750Z,73.45
2019-04-29T17:38:44.267Z,75.75
2019-04-29T17:43:49.735Z,71.72
2019-04-29T17:49:04.719Z,75.35
2019-04-29T17:54:10.308Z,70.75
2019-04-29T17:59:29.630Z,81.32
2019-04-29T18:04:31.751Z,74.72
2019-04-29T18:09:42.106Z,71.75
2019-04-29T18:14:46.311Z,76.05
2019-04-29T18:20:01.415Z,77.80
2019-04-29T18:25:13.122Z,81.55
2019-04-29T18:30:27.377Z,73.37
2019-04-29T18:35:25.577Z,82.20
2019-04-29T18:40:30.219Z,81.40
2019-04-29T18:45:36.647Z,130.97
2019-04-29T18:50:39.968Z,108.70
2019-04-29T18:55:45.068Z,91.12
2019-04-29T19:00:52.406Z,90.32
2019-04-29T19:05:56.146Z,90.40
2019-04-29T19:11:00.038Z,99.15
2019-04-29T19:16:10.242Z,81.05
2019-04-29T19:21:10.369Z,93.67
2019-04-29T19:26:14.425Z,77.35
2019-04-29T19:31:18.353Z,81.92
2019-04-29T19:36:22.273Z,82.17
2019-04-29T19:41:27.917Z,90.83
2019-04-29T19:46:37.424Z,89.05
2019-04-29T19:51:39.338Z,97.85
2019-04-29T19:56:43.034Z,93.82
2019-04-29T20:01:50.990Z,111.10
2019-04-29T20:06:58.672Z,101.20
2019-04-29T20:11:59.209Z,87.60
2019-04-29T20:17:12.785Z,94.25
2019-04-29T20:22:13.455Z,84.67
2019-04-29T20:27:17.684Z,88.03
2019-04-29T20:32:22.266Z,89.05
2019-04-29T20:37:27.451Z,87.25
2019-04-29T20:42:31.929Z,91.85
2019-04-29T20:47:38.543Z,85.80
2019-04-29T20:52:52.094Z,84.13
2019-04-29T20:57:54.971Z,80.60
2019-04-29T21:02:59.038Z,85.00
2019-04-29T21:08:09.739Z,77.82
2019-04-29T21:13:22.451Z,83.00
2019-04-29T21:18:27.077Z,87.33
2019-04-29T21:23:35.238Z,79.50
2019-04-29T21:28:41.245Z,82.00
2019-04-29T21:33:42.480Z,76.92
2019-04-29T21:39:06.267Z,79.92
2019-04-29T21:44:10.507Z,79.32
2019-04-29T21:49:15.610Z,79.80
2019-04-29T21:54:19.708Z,83.92
2019-04-29T21:59:25.487Z,82.00
2019-04-29T22:04:32.696Z,77.80
2019-04-29T22:09:40.284Z,76.33
2019-04-29T22:14:45.023Z,74.40
2019-04-29T22:19:47.191Z,77.37
2019-04-29T22:24:51.344Z,82.08
2019-04-29T22:29:55.624Z,78.37
2019-04-29T22:35:01.629Z,75.67
2019-04-29T22:40:08.780Z,74.00
2019-04-29T22:45:13.060Z,79.10
2019-04-29T22:50:16.951Z,72.87
2019-04-29T22:55:20.853Z,68.25
2019-04-29T23:00:32.578Z,55.63
2019-04-29T23:05:31.818Z,85.67
2019-04-29T23:10:35.773Z,68.90
2019-04-29T23:15:39.691Z,63.87
2019-04-29T23:20:51.210Z,51.18
2019-04-29T23:25:55.678Z,40.35
2019-04-29T23:30:59.688Z,38.67
2019-04-29T23:36:03.580Z,30.48
2019-04-29T23:41:07.473Z,31.23
2019-04-29T23:46:11.370Z,33.23
2019-04-29T23:51:15.426Z,26.70
2019-04-29T23:56:20.998Z,31.82
